Time;durP1;ratioP1;P1;durP2;ratioP2;P2;SDS_P1;SDS_P2;PMS_P1;PMS_P2;Temp;Humidity;BMP_temperature;BMP_pressure;BME280_temperature;BME280_humidity;BME280_pressure;Samples;Min_cycle;Max_cycle;Signal;HPM_P1;HPM_P2
2022/12/13 00:02:14;;;;;;;30.80;17.77;;;;;;;;;;6150440;23;20427;-80
2022/12/13 00:04:40;;;;;;;26.07;16.00;;;;;;;;;;6151760;23;20392;-80
2022/12/13 00:07:06;;;;;;;34.77;18.50;;;;;;;;;;6119687;23;20461;-79
2022/12/13 00:09:32;;;;;;;26.23;15.77;;;;;;;;;;6148586;23;20443;-80
2022/12/13 00:11:58;;;;;;;24.15;15.40;;;;;;;;;;6144681;23;20539;-80
2022/12/13 00:14:24;;;;;;;25.17;16.10;;;;;;;;;;6143356;23;20184;-80
2022/12/13 00:16:50;;;;;;;33.57;16.50;;;;;;;;;;6145001;23;20376;-80
2022/12/13 00:19:17;;;;;;;33.03;16.17;;;;;;;;;;6147561;23;20339;-81
2022/12/13 00:21:43;;;;;;;31.98;16.50;;;;;;;;;;6144022;23;20713;-81
2022/12/13 00:24:09;;;;;;;29.50;15.50;;;;;;;;;;6148068;23;20490;-82
2022/12/13 00:26:35;;;;;;;33.47;16.27;;;;;;;;;;6144596;23;20153;-81
2022/12/13 00:29:02;;;;;;;29.92;17.27;;;;;;;;;;6121888;23;20379;-82
2022/12/13 00:31:32;;;;;;;24.40;14.00;;;;;;;;;;6144028;23;20207;-82
2022/12/13 00:34:00;;;;;;;32.03;17.17;;;;;;;;;;6148497;23;20544;-82
2022/12/13 00:36:26;;;;;;;23.00;14.32;;;;;;;;;;6144103;23;20159;-82
2022/12/13 00:39:01;;;;;;;29.08;16.00;;;;;;;;;;6148265;23;20572;-82
2022/12/13 00:41:29;;;;;;;26.05;16.42;;;;;;;;;;6144254;23;20482;-82
2022/12/13 00:43:55;;;;;;;24.17;14.60;;;;;;;;;;6147596;23;20231;-82
2022/12/13 00:46:21;;;;;;;23.33;16.15;;;;;;;;;;6144273;23;20153;-82
2022/12/13 00:48:53;;;;;;;29.23;16.73;;;;;;;;;;6148115;23;20160;-81
2022/12/13 00:51:19;;;;;;;24.90;14.55;;;;;;;;;;6142790;23;20244;-81
2022/12/13 00:53:45;;;;;;;24.67;14.52;;;;;;;;;;6121371;23;20161;-82
2022/12/13 00:56:12;;;;;;;27.43;15.50;;;;;;;;;;6144862;23;20171;-81
2022/12/13 00:58:38;;;;;;;27.52;13.30;;;;;;;;;;6147627;23;20442;-82
2022/12/13 01:01:06;;;;;;;22.90;12.95;;;;;;;;;;6143708;23;20553;-83
2022/12/13 01:03:32;;;;;;;25.25;14.35;;;;;;;;;;6147297;23;20164;-82
2022/12/13 01:05:58;;;;;;;31.38;16.48;;;;;;;;;;6144061;23;20176;-82
2022/12/13 01:08:24;;;;;;;31.83;14.10;;;;;;;;;;6148176;23;20141;-82
2022/12/13 01:10:51;;;;;;;27.95;14.50;;;;;;;;;;6143093;23;20192;-82
2022/12/13 01:13:17;;;;;;;29.08;15.50;;;;;;;;;;6147441;23;20182;-81
2022/12/13 01:15:43;;;;;;;25.20;14.20;;;;;;;;;;6139531;23;20172;-80
2022/12/13 01:18:10;;;;;;;25.92;13.45;;;;;;;;;;6148371;23;20346;-82
2022/12/13 01:20:37;;;;;;;21.23;12.65;;;;;;;;;;6142894;23;20658;-81
2022/12/13 01:23:03;;;;;;;24.50;13.98;;;;;;;;;;6147286;23;20633;-80
2022/12/13 01:25:32;;;;;;;24.40;13.95;;;;;;;;;;6145034;23;20144;-81
2022/12/13 01:28:01;;;;;;;28.55;15.25;;;;;;;;;;6147387;23;20454;-80
2022/12/13 01:30:27;;;;;;;23.67;15.00;;;;;;;;;;6143165;23;20236;-80
2022/12/13 01:32:53;;;;;;;21.88;14.02;;;;;;;;;;6148157;23;20578;-80
2022/12/13 01:35:19;;;;;;;25.80;16.20;;;;;;;;;;6146474;23;20156;-80
2022/12/13 01:37:45;;;;;;;27.10;14.60;;;;;;;;;;6143689;23;20384;-79
2022/12/13 01:40:12;;;;;;;20.35;12.38;;;;;;;;;;6147196;23;20422;-80
2022/12/13 01:42:38;;;;;;;27.23;15.00;;;;;;;;;;6143256;23;20233;-81
2022/12/13 01:45:06;;;;;;;25.10;15.00;;;;;;;;;;6147268;23;20187;-80
2022/12/13 01:47:38;;;;;;;22.02;12.95;;;;;;;;;;6143241;23;20644;-80
2022/12/13 01:50:07;;;;;;;20.27;12.00;;;;;;;;;;6120458;23;20160;-79
2022/12/13 01:52:33;;;;;;;24.15;14.23;;;;;;;;;;6143687;23;20330;-81
2022/12/13 01:55:00;;;;;;;23.95;16.38;;;;;;;;;;6146900;23;20153;-81
2022/12/13 01:57:27;;;;;;;22.88;12.65;;;;;;;;;;6143535;23;20160;-81
2022/12/13 01:59:53;;;;;;;22.95;13.07;;;;;;;;;;6146646;23;20164;-80
2022/12/13 02:02:19;;;;;;;24.85;13.98;;;;;;;;;;6116398;23;20381;-79
2022/12/13 02:05:08;;;;;;;20.45;12.20;;;;;;;;;;6146999;23;20172;-81
2022/12/13 02:07:34;;;;;;;20.25;12.23;;;;;;;;;;6146863;23;20209;-81
2022/12/13 02:10:02;;;;;;;23.23;13.48;;;;;;;;;;6146876;23;20184;-81
2022/12/13 02:12:30;;;;;;;28.73;14.95;;;;;;;;;;6146674;23;20185;-81
2022/12/13 02:14:57;;;;;;;24.42;13.80;;;;;;;;;;6142262;23;20160;-81
2022/12/13 02:17:46;;;;;;;22.00;12.75;;;;;;;;;;6143373;23;20475;-79
2022/12/13 02:20:12;;;;;;;26.33;13.52;;;;;;;;;;6075804;23;20164;-79
2022/12/13 02:22:57;;;;;;;15.07;10.77;;;;;;;;;;6147366;23;20680;-81
2022/12/13 02:25:31;;;;;;;19.67;12.10;;;;;;;;;;6143111;23;20913;-82
2022/12/13 02:28:16;;;;;;;23.08;13.32;;;;;;;;;;6121347;23;20140;-82
2022/12/13 02:30:44;;;;;;;28.85;13.77;;;;;;;;;;6143805;23;20611;-82
2022/12/13 02:33:16;;;;;;;24.30;12.90;;;;;;;;;;6143247;23;20161;-81
2022/12/13 02:35:49;;;;;;;20.90;13.85;;;;;;;;;;6146631;23;20152;-82
2022/12/13 02:38:18;;;;;;;29.10;13.20;;;;;;;;;;6143466;23;20164;-82
2022/12/13 02:40:54;;;;;;;23.75;13.30;;;;;;;;;;6148034;23;20157;-82
2022/12/13 02:43:29;;;;;;;24.08;13.60;;;;;;;;;;6145471;23;20235;-81
2022/12/13 02:45:58;;;;;;;23.17;13.05;;;;;;;;;;6147057;23;20140;-82
2022/12/13 02:48:26;;;;;;;25.10;13.38;;;;;;;;;;6142575;23;20192;-81
2022/12/13 02:50:53;;;;;;;30.27;14.85;;;;;;;;;;6146750;23;20163;-82
2022/12/13 02:53:20;;;;;;;17.67;10.45;;;;;;;;;;6142389;23;20450;-81
2022/12/13 02:55:46;;;;;;;16.20;10.38;;;;;;;;;;6146518;23;20488;-81
2022/12/13 02:58:13;;;;;;;22.52;12.25;;;;;;;;;;6142989;23;20160;-81
2022/12/13 03:00:39;;;;;;;21.83;12.70;;;;;;;;;;6146194;23;20156;-80
2022/12/13 03:03:05;;;;;;;26.93;13.70;;;;;;;;;;6116095;23;20492;-81
2022/12/13 03:08:30;;;;;;;19.55;11.30;;;;;;;;;;6142594;23;20442;-80
2022/12/13 03:11:05;;;;;;;18.73;12.20;;;;;;;;;;6145972;23;20187;-80
2022/12/13 03:13:40;;;;;;;14.35;9.60;;;;;;;;;;6142634;23;20176;-80
2022/12/13 03:16:21;;;;;;;19.13;11.50;;;;;;;;;;6146836;23;20161;-81
2022/12/13 03:18:47;;;;;;;24.80;14.02;;;;;;;;;;6120124;23;20466;-82
2022/12/13 03:21:14;;;;;;;25.88;13.05;;;;;;;;;;6149135;23;20561;-80
2022/12/13 03:23:40;;;;;;;23.00;11.45;;;;;;;;;;6120193;23;20172;-80
2022/12/13 03:26:14;;;;;;;22.27;12.30;;;;;;;;;;6149051;23;20228;-80
2022/12/13 03:28:41;;;;;;;22.35;12.10;;;;;;;;;;6146809;23;20151;-81
2022/12/13 03:31:07;;;;;;;20.88;11.57;;;;;;;;;;6156059;23;20310;-82
2022/12/13 03:33:34;;;;;;;19.37;13.17;;;;;;;;;;6155276;23;20159;-81
2022/12/13 03:36:01;;;;;;;18.60;11.85;;;;;;;;;;6159402;23;20389;-81
2022/12/13 03:38:27;;;;;;;19.77;10.70;;;;;;;;;;6150701;23;20173;-81
2022/12/13 03:40:55;;;;;;;20.83;12.30;;;;;;;;;;6152092;23;20169;-81
2022/12/13 03:43:21;;;;;;;26.38;14.25;;;;;;;;;;6146787;23;20549;-82
2022/12/13 03:45:47;;;;;;;23.33;11.90;;;;;;;;;;6150635;23;20238;-80
2022/12/13 03:48:14;;;;;;;25.27;15.30;;;;;;;;;;6147001;23;20191;-80
2022/12/13 03:50:40;;;;;;;18.52;10.30;;;;;;;;;;6150013;23;20467;-81
2022/12/13 03:53:06;;;;;;;27.07;12.90;;;;;;;;;;6146511;23;20176;-80
2022/12/13 03:55:32;;;;;;;25.10;13.67;;;;;;;;;;6149549;23;21068;-81
2022/12/13 03:57:58;;;;;;;18.83;12.23;;;;;;;;;;6146752;23;20464;-80
2022/12/13 04:00:24;;;;;;;20.27;12.90;;;;;;;;;;6150096;23;20654;-80
2022/12/13 04:02:50;;;;;;;21.77;13.00;;;;;;;;;;6145194;23;20424;-81
2022/12/13 04:05:16;;;;;;;26.67;13.75;;;;;;;;;;6149538;23;20499;-81
2022/12/13 04:07:42;;;;;;;27.23;14.10;;;;;;;;;;6146768;23;20164;-81
2022/12/13 04:10:08;;;;;;;19.57;10.20;;;;;;;;;;6149970;23;20157;-82
2022/12/13 04:15:19;;;;;;;21.98;12.30;;;;;;;;;;6141686;23;20168;-82
2022/12/13 04:17:45;;;;;;;21.58;12.70;;;;;;;;;;6142119;23;20152;-83
2022/12/13 04:20:11;;;;;;;23.30;12.93;;;;;;;;;;6149712;23;20149;-82
2022/12/13 04:22:37;;;;;;;23.73;14.10;;;;;;;;;;6145964;23;20184;-84
2022/12/13 04:25:03;;;;;;;26.90;13.87;;;;;;;;;;6149815;23;20243;-82
2022/12/13 04:27:29;;;;;;;26.67;15.02;;;;;;;;;;6144240;23;20705;-84
2022/12/13 04:29:55;;;;;;;24.47;12.67;;;;;;;;;;6149649;23;20149;-84
2022/12/13 04:32:21;;;;;;;22.17;11.85;;;;;;;;;;6119535;23;20407;-84
2022/12/13 04:34:47;;;;;;;19.33;12.02;;;;;;;;;;6121793;23;20156;-82
2022/12/13 04:37:13;;;;;;;25.10;13.03;;;;;;;;;;6144751;23;20460;-82
2022/12/13 04:39:39;;;;;;;27.30;16.33;;;;;;;;;;6147369;23;20355;-82
2022/12/13 04:42:05;;;;;;;20.20;13.10;;;;;;;;;;6143429;23;20928;-83
2022/12/13 04:44:32;;;;;;;20.65;12.40;;;;;;;;;;6146615;23;20488;-83
2022/12/13 04:46:58;;;;;;;20.50;13.88;;;;;;;;;;6138596;23;20160;-82
2022/12/13 04:49:24;;;;;;;23.90;10.60;;;;;;;;;;6147115;23;20168;-83
2022/12/13 04:51:50;;;;;;;24.98;13.38;;;;;;;;;;6143741;23;20160;-83
2022/12/13 04:54:17;;;;;;;21.13;14.50;;;;;;;;;;6152012;23;20193;-86
2022/12/13 04:56:45;;;;;;;25.20;14.77;;;;;;;;;;6120574;23;20384;-85
2022/12/13 04:59:11;;;;;;;27.88;13.25;;;;;;;;;;6121483;23;20486;-81
2022/12/13 05:01:37;;;;;;;33.07;15.60;;;;;;;;;;6143482;23;20173;-81
2022/12/13 05:04:06;;;;;;;28.90;15.52;;;;;;;;;;6121731;23;20528;-82
2022/12/13 05:06:31;;;;;;;25.88;15.50;;;;;;;;;;6139756;23;20200;-82
2022/12/13 05:08:57;;;;;;;25.73;16.20;;;;;;;;;;6147544;23;20164;-84
2022/12/13 05:11:23;;;;;;;26.10;14.43;;;;;;;;;;6144175;23;20772;-83
2022/12/13 05:13:49;;;;;;;25.97;14.50;;;;;;;;;;6142968;23;20153;-84
2022/12/13 05:16:15;;;;;;;27.20;14.23;;;;;;;;;;6145927;23;20351;-83
2022/12/13 05:18:42;;;;;;;28.90;13.00;;;;;;;;;;6118620;23;20386;-84
2022/12/13 05:21:09;;;;;;;28.73;15.45;;;;;;;;;;6147416;23;20509;-82
2022/12/13 05:23:35;;;;;;;21.13;13.98;;;;;;;;;;6120568;23;20215;-86
2022/12/13 05:26:01;;;;;;;31.45;15.52;;;;;;;;;;6147511;23;20243;-84
2022/12/13 05:28:28;;;;;;;20.50;12.45;;;;;;;;;;6118153;23;20164;-83
2022/12/13 05:30:55;;;;;;;19.42;12.40;;;;;;;;;;6146938;23;20157;-81
2022/12/13 05:33:22;;;;;;;19.63;13.32;;;;;;;;;;6143545;23;20215;-84
2022/12/13 05:35:48;;;;;;;23.42;11.85;;;;;;;;;;6145985;23;20191;-82
2022/12/13 05:38:14;;;;;;;16.98;11.00;;;;;;;;;;6146364;23;20159;-83
2022/12/13 05:40:40;;;;;;;25.40;13.53;;;;;;;;;;6147901;23;20153;-82
2022/12/13 05:43:06;;;;;;;21.57;12.90;;;;;;;;;;6144603;23;20791;-83
2022/12/13 05:45:32;;;;;;;27.17;13.70;;;;;;;;;;6146795;23;20943;-82
2022/12/13 05:47:58;;;;;;;22.50;12.48;;;;;;;;;;6143301;23;20239;-81
2022/12/13 05:50:25;;;;;;;21.70;13.40;;;;;;;;;;6146702;23;20236;-81
2022/12/13 05:52:51;;;;;;;22.88;11.05;;;;;;;;;;6143362;23;20152;-83
2022/12/13 05:55:17;;;;;;;23.52;13.02;;;;;;;;;;6120086;23;20473;-82
2022/12/13 05:57:43;;;;;;;21.90;13.60;;;;;;;;;;6144025;23;20152;-81
2022/12/13 06:00:10;;;;;;;17.40;10.80;;;;;;;;;;6146915;23;20159;-82
2022/12/13 06:02:37;;;;;;;18.33;11.00;;;;;;;;;;6116458;23;20236;-82
2022/12/13 06:05:04;;;;;;;15.73;10.93;;;;;;;;;;6146081;23;20461;-79
2022/12/13 06:07:30;;;;;;;20.63;12.27;;;;;;;;;;6142546;23;20203;-82
2022/12/13 06:09:56;;;;;;;18.43;12.90;;;;;;;;;;6147841;23;20523;-80
2022/12/13 06:12:22;;;;;;;19.65;12.30;;;;;;;;;;6142710;23;20435;-82
2022/12/13 06:14:48;;;;;;;19.00;12.05;;;;;;;;;;6141406;23;20178;-81
2022/12/13 06:17:14;;;;;;;23.80;11.47;;;;;;;;;;6140099;23;20590;-82
2022/12/13 06:19:40;;;;;;;19.20;11.40;;;;;;;;;;6147517;23;20750;-81
2022/12/13 06:22:06;;;;;;;21.77;12.30;;;;;;;;;;6152616;23;20391;-81
2022/12/13 06:24:32;;;;;;;20.70;12.47;;;;;;;;;;6149846;23;20372;-81
2022/12/13 06:26:59;;;;;;;26.65;13.73;;;;;;;;;;6147070;23;20426;-82
2022/12/13 06:29:25;;;;;;;26.63;15.07;;;;;;;;;;6143378;23;20153;-80
2022/12/13 06:32:01;;;;;;;23.55;14.15;;;;;;;;;;6146065;23;20156;-81
2022/12/13 06:34:29;;;;;;;21.48;12.40;;;;;;;;;;6141860;23;20160;-82
2022/12/13 06:36:55;;;;;;;22.45;12.18;;;;;;;;;;6118647;23;20164;-81
2022/12/13 06:39:21;;;;;;;28.40;12.13;;;;;;;;;;6143209;23;20152;-81
2022/12/13 06:41:47;;;;;;;28.08;14.00;;;;;;;;;;6145755;23;20352;-81
2022/12/13 06:44:13;;;;;;;21.58;13.50;;;;;;;;;;6142658;23;20236;-83
2022/12/13 06:46:39;;;;;;;32.38;14.68;;;;;;;;;;6145985;23;20168;-80
2022/12/13 06:49:05;;;;;;;25.30;17.30;;;;;;;;;;6142602;23;20161;-80
2022/12/13 06:51:32;;;;;;;30.17;18.02;;;;;;;;;;6120042;23;20366;-80
2022/12/13 06:54:01;;;;;;;26.67;14.93;;;;;;;;;;6143360;23;20235;-80
2022/12/13 06:56:28;;;;;;;23.27;13.07;;;;;;;;;;6147082;23;20152;-80
2022/12/13 06:58:54;;;;;;;19.73;11.35;;;;;;;;;;6143368;23;20161;-80
2022/12/13 07:01:20;;;;;;;21.70;10.93;;;;;;;;;;6155119;23;20334;-80
2022/12/13 07:03:46;;;;;;;21.10;12.70;;;;;;;;;;6163617;23;20375;-79
2022/12/13 07:06:13;;;;;;;23.43;12.87;;;;;;;;;;6162147;23;20459;-79
2022/12/13 07:08:39;;;;;;;23.45;15.48;;;;;;;;;;6147306;23;20483;-79
2022/12/13 07:11:05;;;;;;;31.58;14.65;;;;;;;;;;6157854;23;20620;-79
2022/12/13 07:13:32;;;;;;;27.92;14.13;;;;;;;;;;6116301;23;20298;-80
2022/12/13 07:15:59;;;;;;;15.90;11.05;;;;;;;;;;6147260;23;20184;-80
2022/12/13 07:18:25;;;;;;;20.83;12.48;;;;;;;;;;6141576;23;20164;-80
2022/12/13 07:20:51;;;;;;;28.38;12.35;;;;;;;;;;6145502;23;20221;-79
2022/12/13 07:23:17;;;;;;;14.32;10.57;;;;;;;;;;6141844;23;20160;-79
2022/12/13 07:25:50;;;;;;;9.67;7.30;;;;;;;;;;6145424;23;20465;-80
2022/12/13 07:28:16;;;;;;;18.67;10.40;;;;;;;;;;6142247;23;20404;-78
2022/12/13 07:30:42;;;;;;;20.40;12.02;;;;;;;;;;6145675;23;20613;-79
2022/12/13 07:33:08;;;;;;;15.90;11.33;;;;;;;;;;6141943;23;20156;-81
2022/12/13 07:35:35;;;;;;;19.10;12.35;;;;;;;;;;6145399;23;20522;-80
2022/12/13 07:38:01;;;;;;;22.05;12.35;;;;;;;;;;6133176;23;20157;-80
2022/12/13 07:40:27;;;;;;;15.82;10.63;;;;;;;;;;6119303;23;20203;-80
2022/12/13 07:42:53;;;;;;;12.20;9.27;;;;;;;;;;6141635;23;20192;-78
2022/12/13 07:45:20;;;;;;;27.17;13.23;;;;;;;;;;6145038;23;20826;-80
2022/12/13 07:47:46;;;;;;;33.42;12.20;;;;;;;;;;6141617;23;20220;-79
2022/12/13 07:50:15;;;;;;;21.30;13.40;;;;;;;;;;6145576;23;20149;-79
2022/12/13 07:52:41;;;;;;;20.95;12.00;;;;;;;;;;6117065;23;20160;-79
2022/12/13 07:55:08;;;;;;;27.33;13.30;;;;;;;;;;6119818;23;20160;-80
2022/12/13 07:57:34;;;;;;;23.40;12.40;;;;;;;;;;6142711;23;20707;-81
2022/12/13 08:00:00;;;;;;;19.30;10.23;;;;;;;;;;6145419;23;20530;-80
2022/12/13 08:02:27;;;;;;;26.52;13.00;;;;;;;;;;6146715;23;20259;-80
2022/12/13 08:04:53;;;;;;;13.45;10.82;;;;;;;;;;6121832;23;20152;-80
2022/12/13 08:07:19;;;;;;;28.57;11.70;;;;;;;;;;6147589;23;20353;-80
2022/12/13 08:09:48;;;;;;;20.85;10.25;;;;;;;;;;6141902;23;20390;-80
2022/12/13 08:12:14;;;;;;;26.00;11.77;;;;;;;;;;6115969;23;20244;-80
2022/12/13 08:14:41;;;;;;;24.08;11.43;;;;;;;;;;6104199;23;20160;-80
2022/12/13 08:17:07;;;;;;;26.10;13.57;;;;;;;;;;6117394;23;20207;-78
2022/12/13 08:19:33;;;;;;;29.97;13.67;;;;;;;;;;6112571;23;20195;-80
2022/12/13 08:22:03;;;;;;;24.80;13.67;;;;;;;;;;6117627;23;20420;-78
2022/12/13 08:24:29;;;;;;;23.08;12.38;;;;;;;;;;6113855;23;20397;-80
2022/12/13 08:26:59;;;;;;;24.40;13.55;;;;;;;;;;6117217;23;20208;-80
2022/12/13 08:29:25;;;;;;;16.58;9.93;;;;;;;;;;6114618;23;20153;-79
2022/12/13 08:31:51;;;;;;;24.67;13.18;;;;;;;;;;6118032;23;20185;-79
2022/12/13 08:34:17;;;;;;;20.03;12.23;;;;;;;;;;6114182;23;20535;-79
2022/12/13 08:36:43;;;;;;;29.92;15.57;;;;;;;;;;6116545;23;20870;-79
2022/12/13 08:39:09;;;;;;;17.77;12.83;;;;;;;;;;6112441;23;20161;-78
2022/12/13 08:41:35;;;;;;;26.10;13.67;;;;;;;;;;6117823;23;20413;-78
2022/12/13 08:44:03;;;;;;;20.87;12.60;;;;;;;;;;6113654;23;20364;-78
2022/12/13 08:46:29;;;;;;;26.15;12.88;;;;;;;;;;6115669;23;20390;-78
2022/12/13 08:48:59;;;;;;;14.13;10.27;;;;;;;;;;6114230;23;20674;-77
2022/12/13 08:51:25;;;;;;;20.67;12.80;;;;;;;;;;6117297;23;20389;-81
2022/12/13 08:53:51;;;;;;;13.88;11.18;;;;;;;;;;6112639;23;20412;-79
2022/12/13 08:56:20;;;;;;;19.05;13.48;;;;;;;;;;6116936;23;20173;-77
2022/12/13 08:58:50;;;;;;;12.95;11.18;;;;;;;;;;6113760;23;20165;-77
2022/12/13 09:01:16;;;;;;;26.42;14.90;;;;;;;;;;6117360;23;20175;-80
2022/12/13 09:03:42;;;;;;;22.60;15.45;;;;;;;;;;6114679;23;20628;-79
2022/12/13 09:06:09;;;;;;;23.60;16.53;;;;;;;;;;6117087;23;20190;-79
2022/12/13 09:08:35;;;;;;;36.00;18.85;;;;;;;;;;6111955;23;20372;-78
2022/12/13 09:11:02;;;;;;;24.08;14.48;;;;;;;;;;6126328;23;20192;-78
2022/12/13 09:13:28;;;;;;;11.65;8.55;;;;;;;;;;6135056;23;20484;-78
2022/12/13 09:15:54;;;;;;;14.82;12.88;;;;;;;;;;6141054;23;20215;-79
2022/12/13 09:18:20;;;;;;;21.10;11.33;;;;;;;;;;6145991;23;20160;-79
2022/12/13 09:20:46;;;;;;;27.60;13.30;;;;;;;;;;6142606;23;20363;-79
2022/12/13 09:23:12;;;;;;;22.53;11.00;;;;;;;;;;6146748;23;20184;-78
2022/12/13 09:25:38;;;;;;;23.37;14.40;;;;;;;;;;6142454;23;20343;-77
2022/12/13 09:28:06;;;;;;;28.02;13.13;;;;;;;;;;6146244;23;20704;-78
2022/12/13 09:30:32;;;;;;;23.63;12.02;;;;;;;;;;6142578;23;20243;-79
2022/12/13 09:32:58;;;;;;;17.47;11.67;;;;;;;;;;6146244;23;20235;-79
2022/12/13 09:35:27;;;;;;;17.97;12.47;;;;;;;;;;6143544;23;20704;-79
2022/12/13 09:37:54;;;;;;;17.38;12.05;;;;;;;;;;6142560;23;20427;-77
2022/12/13 09:40:23;;;;;;;18.05;11.50;;;;;;;;;;6146740;23;20140;-79
2022/12/13 09:42:52;;;;;;;18.42;12.10;;;;;;;;;;6143485;23;20283;-79
2022/12/13 09:45:18;;;;;;;21.17;12.55;;;;;;;;;;6146815;23;20527;-79
2022/12/13 09:47:45;;;;;;;14.65;12.25;;;;;;;;;;6117912;23;20160;-78
2022/12/13 09:50:14;;;;;;;19.90;12.82;;;;;;;;;;6146871;23;20155;-79
2022/12/13 09:52:41;;;;;;;17.92;12.48;;;;;;;;;;6143481;23;20160;-78
2022/12/13 09:55:30;;;;;;;22.67;13.82;;;;;;;;;;6120449;23;20483;-80
2022/12/13 09:57:57;;;;;;;21.58;14.52;;;;;;;;;;6143294;23;20148;-78
2022/12/13 10:00:26;;;;;;;19.33;12.80;;;;;;;;;;6146610;23;20145;-78
2022/12/13 10:02:53;;;;;;;17.10;12.63;;;;;;;;;;6144985;23;20185;-78
2022/12/13 10:05:32;;;;;;;20.50;14.07;;;;;;;;;;6149267;23;20164;-78
2022/12/13 10:07:59;;;;;;;21.33;14.05;;;;;;;;;;6144096;23;20199;-77
2022/12/13 10:10:25;;;;;;;17.40;13.82;;;;;;;;;;6146040;23;20625;-79
2022/12/13 10:12:54;;;;;;;26.65;14.18;;;;;;;;;;6143326;23;20172;-78
2022/12/13 10:15:20;;;;;;;19.52;13.93;;;;;;;;;;6143098;23;20148;-78
2022/12/13 10:17:47;;;;;;;23.30;13.75;;;;;;;;;;6143915;23;20161;-78
2022/12/13 10:20:18;;;;;;;18.83;10.48;;;;;;;;;;6145086;23;20212;-79
2022/12/13 10:22:44;;;;;;;20.13;13.23;;;;;;;;;;6142200;23;20180;-77
2022/12/13 10:25:10;;;;;;;21.92;14.40;;;;;;;;;;6146961;23;20145;-79
2022/12/13 10:27:39;;;;;;;20.95;13.50;;;;;;;;;;6142415;23;20165;-78
2022/12/13 10:30:05;;;;;;;22.50;14.40;;;;;;;;;;6146694;23;20626;-79
2022/12/13 10:32:38;;;;;;;22.45;15.13;;;;;;;;;;6142671;23;20153;-77
2022/12/13 10:35:24;;;;;;;29.60;16.63;;;;;;;;;;6120144;23;20550;-78
2022/12/13 10:37:51;;;;;;;26.35;15.27;;;;;;;;;;6115897;23;20227;-78
2022/12/13 10:40:30;;;;;;;19.65;11.98;;;;;;;;;;6120481;23;20202;-78
2022/12/13 10:43:14;;;;;;;22.13;14.63;;;;;;;;;;6116582;23;20326;-80
2022/12/13 10:46:00;;;;;;;20.48;13.55;;;;;;;;;;6120317;23;20149;-77
2022/12/13 10:48:34;;;;;;;24.85;16.10;;;;;;;;;;6143576;23;20156;-80
2022/12/13 10:51:02;;;;;;;22.13;14.65;;;;;;;;;;6149476;23;20153;-77
2022/12/13 10:53:33;;;;;;;22.20;16.75;;;;;;;;;;6153288;23;20611;-78
2022/12/13 10:56:00;;;;;;;18.95;14.55;;;;;;;;;;6149543;23;20157;-76
2022/12/13 10:58:34;;;;;;;22.40;15.77;;;;;;;;;;6148868;23;20141;-78
2022/12/13 11:01:07;;;;;;;23.30;13.88;;;;;;;;;;6143197;23;20137;-79
2022/12/13 11:03:34;;;;;;;20.58;13.25;;;;;;;;;;6146351;23;20162;-78
2022/12/13 11:06:03;;;;;;;22.45;14.13;;;;;;;;;;6143210;23;20531;-78
2022/12/13 11:08:29;;;;;;;22.27;14.65;;;;;;;;;;6146161;23;20133;-78
2022/12/13 11:10:59;;;;;;;23.40;13.90;;;;;;;;;;6145860;23;20203;-79
2022/12/13 11:13:30;;;;;;;15.63;13.13;;;;;;;;;;6139543;23;20699;-77
2022/12/13 11:16:00;;;;;;;17.48;12.10;;;;;;;;;;6148376;23;20136;-78
2022/12/13 11:18:32;;;;;;;13.63;9.57;;;;;;;;;;6149360;23;20220;-79
2022/12/13 11:21:00;;;;;;;15.43;11.20;;;;;;;;;;6144994;23;20356;-80
2022/12/13 11:23:37;;;;;;;14.20;11.40;;;;;;;;;;6147867;23;20471;-80
2022/12/13 11:26:14;;;;;;;17.00;13.60;;;;;;;;;;6144124;23;20797;-80
2022/12/13 11:29:01;;;;;;;13.90;11.60;;;;;;;;;;6148127;23;20422;-81
2022/12/13 11:31:38;;;;;;;15.43;12.43;;;;;;;;;;6147896;23;20649;-83
2022/12/13 11:34:26;;;;;;;15.67;12.90;;;;;;;;;;6152674;23;21275;-81
2022/12/13 11:37:11;;;;;;;15.67;13.27;;;;;;;;;;6165886;23;20368;-79
2022/12/13 11:39:43;;;;;;;13.50;11.70;;;;;;;;;;6163246;23;20372;-78
2022/12/13 11:42:17;;;;;;;18.67;14.10;;;;;;;;;;6147600;23;20384;-80
2022/12/13 11:45:02;;;;;;;17.87;14.30;;;;;;;;;;6155523;23;20375;-79
2022/12/13 11:47:33;;;;;;;18.50;14.07;;;;;;;;;;6154784;23;20459;-79
2022/12/13 11:50:02;;;;;;;14.53;12.50;;;;;;;;;;6147922;23;20388;-78
2022/12/13 11:52:33;;;;;;;15.43;12.80;;;;;;;;;;6143724;23;20440;-78
2022/12/13 11:55:02;;;;;;;22.30;12.47;;;;;;;;;;6121611;23;20382;-79
2022/12/13 11:57:37;;;;;;;18.50;12.87;;;;;;;;;;6144840;23;20708;-79
2022/12/13 12:00:16;;;;;;;15.53;12.10;;;;;;;;;;6149222;23;20916;-80
2022/12/13 12:02:52;;;;;;;16.47;13.00;;;;;;;;;;6143990;23;20376;-80
2022/12/13 12:05:28;;;;;;;17.87;14.27;;;;;;;;;;6148033;23;20507;-78
2022/12/13 12:07:56;;;;;;;13.20;11.87;;;;;;;;;;6145810;23;20360;-80
2022/12/13 12:10:27;;;;;;;12.53;10.77;;;;;;;;;;6146325;23;20534;-83
2022/12/13 12:12:56;;;;;;;14.27;11.00;;;;;;;;;;6119177;23;20746;-79
2022/12/13 12:15:28;;;;;;;15.90;12.77;;;;;;;;;;6141029;23;20388;-80
2022/12/13 12:17:55;;;;;;;12.20;10.10;;;;;;;;;;6119455;23;20951;-79
2022/12/13 12:20:26;;;;;;;10.73;9.60;;;;;;;;;;6144463;23;20491;-80
2022/12/13 12:23:00;;;;;;;10.63;9.00;;;;;;;;;;6119370;23;20471;-78
2022/12/13 12:25:35;;;;;;;13.53;10.03;;;;;;;;;;6146249;23;20727;-79
2022/12/13 12:28:05;;;;;;;14.27;10.30;;;;;;;;;;6119711;23;20395;-80
2022/12/13 12:30:31;;;;;;;12.60;10.70;;;;;;;;;;6118694;23;20446;-79
2022/12/13 12:33:07;;;;;;;14.90;10.07;;;;;;;;;;6145139;23;20530;-79
2022/12/13 12:35:42;;;;;;;27.30;11.60;;;;;;;;;;6119135;23;20650;-78
2022/12/13 12:38:25;;;;;;;14.30;10.77;;;;;;;;;;6118963;23;20857;-79
2022/12/13 12:40:54;;;;;;;15.50;10.47;;;;;;;;;;6145542;23;20364;-81
2022/12/13 12:43:34;;;;;;;12.67;9.93;;;;;;;;;;6145612;23;20849;-78
2022/12/13 12:46:21;;;;;;;13.50;9.20;;;;;;;;;;6121556;23;20403;-79
2022/12/13 12:48:47;;;;;;;31.05;17.55;;;;;;;;;;6139334;23;20382;-82
2022/12/13 12:51:18;;;;;;;15.00;11.37;;;;;;;;;;6147646;23;20140;-78
2022/12/13 12:54:11;;;;;;;10.57;9.50;;;;;;;;;;6143965;23;20471;-79
2022/12/13 12:56:44;;;;;;;10.73;9.40;;;;;;;;;;6146836;23;20378;-79
2022/12/13 12:59:16;;;;;;;15.00;11.77;;;;;;;;;;6144493;23;20436;-80
2022/12/13 13:01:50;;;;;;;16.40;9.70;;;;;;;;;;6147078;23;20380;-78
2022/12/13 13:04:18;;;;;;;10.40;9.30;;;;;;;;;;6143677;23;20410;-79
2022/12/13 13:07:07;;;;;;;11.00;9.17;;;;;;;;;;6146672;23;20889;-78
2022/12/13 13:09:40;;;;;;;12.67;9.00;;;;;;;;;;6143881;23;20387;-79
2022/12/13 13:12:06;;;;;;;12.37;8.73;;;;;;;;;;6147101;23;20432;-79
2022/12/13 13:14:35;;;;;;;8.97;8.07;;;;;;;;;;6137640;23;20376;-79
2022/12/13 13:17:19;;;;;;;12.07;8.83;;;;;;;;;;6120242;23;20392;-79
2022/12/13 13:20:04;;;;;;;15.60;8.10;;;;;;;;;;6143440;23;20408;-80
2022/12/13 13:22:32;;;;;;;16.30;8.33;;;;;;;;;;6145580;23;20462;-80
2022/12/13 13:25:07;;;;;;;16.80;9.03;;;;;;;;;;6117767;23;20402;-80
2022/12/13 13:27:44;;;;;;;14.20;8.70;;;;;;;;;;6146599;23;20376;-79
2022/12/13 13:30:18;;;;;;;12.93;7.77;;;;;;;;;;6147758;23;20631;-79
2022/12/13 13:33:04;;;;;;;13.20;9.10;;;;;;;;;;6142900;23;20912;-78
2022/12/13 13:35:35;;;;;;;23.70;7.90;;;;;;;;;;6146375;23;20365;-78
2022/12/13 13:38:24;;;;;;;13.90;8.53;;;;;;;;;;6117724;23;20385;-79
2022/12/13 13:40:54;;;;;;;13.70;8.27;;;;;;;;;;6119836;23;20368;-78
2022/12/13 13:43:27;;;;;;;11.82;7.70;;;;;;;;;;6142688;23;20376;-78
2022/12/13 13:45:58;;;;;;;15.17;9.43;;;;;;;;;;6120054;23;20228;-77
2022/12/13 13:48:35;;;;;;;18.38;8.90;;;;;;;;;;6143268;23;20394;-77
2022/12/13 13:51:07;;;;;;;15.77;9.10;;;;;;;;;;6147508;23;20156;-80
2022/12/13 13:53:52;;;;;;;15.37;8.90;;;;;;;;;;6142280;23;20180;-78
2022/12/13 13:56:24;;;;;;;15.80;9.52;;;;;;;;;;6146733;23;20540;-77
2022/12/13 13:58:53;;;;;;;14.15;9.02;;;;;;;;;;6142742;23;20176;-78
2022/12/13 14:01:39;;;;;;;16.83;9.90;;;;;;;;;;6119028;23;20211;-80
2022/12/13 14:04:09;;;;;;;22.20;9.05;;;;;;;;;;6142734;23;20203;-79
2022/12/13 14:06:53;;;;;;;11.68;8.23;;;;;;;;;;6139998;23;20296;-79
2022/12/13 14:09:28;;;;;;;20.10;10.40;;;;;;;;;;6145178;23;20180;-78
2022/12/13 14:12:03;;;;;;;21.10;9.90;;;;;;;;;;6142921;23;20509;-78
2022/12/13 14:14:29;;;;;;;17.27;15.15;;;;;;;;;;6142582;23;20152;-78
2022/12/13 14:17:15;;;;;;;15.23;10.37;;;;;;;;;;6143810;23;20157;-78
2022/12/13 14:19:59;;;;;;;16.05;9.88;;;;;;;;;;6146536;23;20383;-78
2022/12/13 14:22:45;;;;;;;13.85;9.70;;;;;;;;;;6116344;23;20439;-79
2022/12/13 14:25:31;;;;;;;14.48;9.65;;;;;;;;;;6142799;23;20148;-76
2022/12/13 14:28:19;;;;;;;15.55;10.48;;;;;;;;;;6072177;23;20679;-77
2022/12/13 14:30:45;;;;;;;15.27;9.57;;;;;;;;;;6141571;23;20207;-78
2022/12/13 14:33:21;;;;;;;19.52;11.32;;;;;;;;;;6146268;23;20180;-79
2022/12/13 14:35:52;;;;;;;21.48;10.10;;;;;;;;;;6141520;23;20183;-76
2022/12/13 14:38:26;;;;;;;18.00;10.23;;;;;;;;;;6145699;23;20700;-77